Time;durP1;ratioP1;P1;durP2;ratioP2;P2;SDS_P1;SDS_P2;PMS_P1;PMS_P2;Temp;Humidity;BMP_temperature;BMP_pressure;BME280_temperature;BME280_humidity;BME280_pressure;Samples;Min_cycle;Max_cycle;Signal;HPM_P1;HPM_P2
2022/05/26 00:00:26;;;;;;;17.90;6.35;;;14.30;99.90;;;;;;5004349;28;20041;-87
2022/05/26 00:02:52;;;;;;;17.20;6.32;;;14.30;99.90;;;;;;5005878;28;20034;-86
2022/05/26 00:05:18;;;;;;;22.10;6.47;;;14.30;99.90;;;;;;5004212;28;20049;-86
2022/05/26 00:07:43;;;;;;;23.27;6.45;;;14.30;99.90;;;;;;4989103;28;21717;-86
2022/05/26 00:10:09;;;;;;;22.42;6.10;;;14.30;99.90;;;;;;5004946;28;20041;-86
2022/05/26 00:12:35;;;;;;;20.60;6.45;;;14.30;99.90;;;;;;5009307;28;20490;-86
2022/05/26 00:15:01;;;;;;;21.60;6.40;;;14.30;99.90;;;;;;5006543;28;20049;-86
2022/05/26 00:17:28;;;;;;;18.67;6.57;;;14.20;99.90;;;;;;5007469;28;20056;-87
2022/05/26 00:19:54;;;;;;;21.05;6.43;;;14.20;99.90;;;;;;5008257;28;20063;-85
2022/05/26 00:22:20;;;;;;;23.02;6.35;;;14.20;99.90;;;;;;5009309;28;20403;-86
2022/05/26 00:24:46;;;;;;;19.95;6.57;;;14.30;99.90;;;;;;4990776;28;20041;-86
2022/05/26 00:27:12;;;;;;;24.13;6.25;;;14.20;99.90;;;;;;5009704;28;20041;-86
2022/05/26 00:29:39;;;;;;;22.50;6.70;;;14.20;99.90;;;;;;5010702;28;20455;-85
2022/05/26 00:32:06;;;;;;;23.23;6.82;;;14.20;99.90;;;;;;5028003;28;20053;-86
2022/05/26 00:34:31;;;;;;;26.20;7.20;;;14.20;99.90;;;;;;5008815;28;20038;-86
2022/05/26 00:36:57;;;;;;;27.23;7.40;;;14.20;99.90;;;;;;5010479;28;20044;-85
2022/05/26 00:39:25;;;;;;;33.50;8.98;;;14.20;99.90;;;;;;5009790;28;20046;-86
2022/05/26 00:42:01;;;;;;;26.90;7.95;;;14.20;99.90;;;;;;4991937;28;20096;-87
2022/05/26 00:44:28;;;;;;;25.02;6.95;;;14.10;99.90;;;;;;5021895;28;20463;-87
2022/05/26 00:46:54;;;;;;;27.08;7.38;;;14.10;99.90;;;;;;5008311;28;20412;-86
2022/05/26 00:49:42;;;;;;;27.42;7.20;;;14.10;99.90;;;;;;5005779;28;20034;-86
2022/05/26 00:52:15;;;;;;;25.30;7.78;;;14.00;99.90;;;;;;5007440;28;20044;-87
2022/05/26 00:54:43;;;;;;;26.05;7.55;;;14.00;99.90;;;;;;5008157;28;20046;-86
2022/05/26 00:57:14;;;;;;;25.02;7.57;;;14.00;99.90;;;;;;4993269;28;20034;-86
2022/05/26 01:00:01;;;;;;;24.88;7.78;;;14.00;99.90;;;;;;4992063;28;20033;-85
2022/05/26 01:02:34;;;;;;;28.88;8.07;;;14.00;99.90;;;;;;5007957;28;20034;-86
2022/05/26 01:05:03;;;;;;;29.50;8.15;;;14.00;99.90;;;;;;4991847;28;20396;-88
2022/05/26 01:07:37;;;;;;;30.92;8.35;;;14.00;99.90;;;;;;5008583;28;20412;-84
2022/05/26 01:10:03;;;;;;;29.98;8.02;;;14.00;99.90;;;;;;4989830;28;20459;-86
2022/05/26 01:12:29;;;;;;;30.83;7.50;;;14.00;99.90;;;;;;5008589;28;20492;-86
2022/05/26 01:15:01;;;;;;;30.80;7.68;;;14.10;99.90;;;;;;4988266;28;20116;-86
2022/05/26 01:17:49;;;;;;;32.92;8.32;;;14.10;99.90;;;;;;5007282;28;20517;-86
2022/05/26 01:20:26;;;;;;;25.15;7.35;;;14.00;99.90;;;;;;5009073;28;20038;-88
2022/05/26 01:23:17;;;;;;;32.22;8.23;;;14.00;99.90;;;;;;5007936;28;20064;-86
2022/05/26 01:26:24;;;;;;;36.20;8.40;;;14.00;99.90;;;;;;4991332;28;20089;-87
2022/05/26 01:28:56;;;;;;;34.90;8.40;;;14.00;99.90;;;;;;4979578;28;20054;-87
2022/05/26 01:31:46;;;;;;;28.63;7.78;;;14.00;99.90;;;;;;5005458;28;20037;-86
2022/05/26 01:34:24;;;;;;;32.05;8.20;;;13.90;99.90;;;;;;4993909;28;20038;-87
2022/05/26 01:37:24;;;;;;;33.60;8.60;;;13.90;99.90;;;;;;5002591;28;20136;-86
2022/05/26 01:40:16;;;;;;;25.08;7.13;;;14.00;99.90;;;;;;5007517;28;20038;-86
2022/05/26 01:43:14;;;;;;;23.98;6.55;;;14.00;99.90;;;;;;4990964;28;20057;-86
2022/05/26 01:45:42;;;;;;;22.52;7.20;;;14.00;99.90;;;;;;5005751;28;20081;-86
2022/05/26 01:48:17;;;;;;;28.48;7.47;;;13.90;99.90;;;;;;5007401;28;20056;-86
2022/05/26 01:50:56;;;;;;;28.48;7.20;;;14.00;99.90;;;;;;5007243;28;20094;-85
2022/05/26 01:53:34;;;;;;;31.92;7.55;;;13.90;99.90;;;;;;5004318;28;20389;-86
2022/05/26 01:56:05;;;;;;;35.58;7.03;;;13.90;99.90;;;;;;5006739;28;20042;-86
2022/05/26 01:58:38;;;;;;;29.58;7.93;;;13.90;99.90;;;;;;5021712;28;20046;-86
2022/05/26 02:01:10;;;;;;;25.90;7.33;;;13.90;99.90;;;;;;5007592;28;20124;-85
2022/05/26 02:03:37;;;;;;;27.25;7.25;;;13.90;99.90;;;;;;5006262;28;20092;-85
2022/05/26 02:06:26;;;;;;;34.25;8.50;;;13.90;99.90;;;;;;5006811;28;20042;-86
2022/05/26 02:09:02;;;;;;;31.67;7.68;;;14.00;99.90;;;;;;5005796;28;20180;-87
2022/05/26 02:11:28;;;;;;;29.17;6.97;;;13.90;99.90;;;;;;5005979;28;20041;-87
2022/05/26 02:14:02;;;;;;;29.98;7.50;;;13.90;99.90;;;;;;5007174;28;20060;-87
2022/05/26 02:16:41;;;;;;;32.13;7.20;;;13.90;99.90;;;;;;4991268;28;20080;-86
2022/05/26 02:19:16;;;;;;;23.45;7.03;;;13.90;99.90;;;;;;5004866;28;20066;-87
2022/05/26 02:21:46;;;;;;;27.95;7.40;;;13.80;99.90;;;;;;5007749;28;20129;-86
2022/05/26 02:24:19;;;;;;;27.05;6.30;;;13.80;99.90;;;;;;4990124;28;20034;-86
2022/05/26 02:26:44;;;;;;;27.67;6.93;;;13.80;99.90;;;;;;5006156;28;20033;-87
2022/05/26 02:31:55;;;;;;;26.08;6.85;;;13.80;99.90;;;;;;5007295;28;20061;-86
2022/05/26 02:34:22;;;;;;;26.70;6.63;;;13.70;99.90;;;;;;4990940;28;20045;-87
2022/05/26 02:36:53;;;;;;;32.42;7.70;;;13.70;99.90;;;;;;4990401;28;20593;-86
2022/05/26 02:39:18;;;;;;;36.53;7.78;;;13.70;99.90;;;;;;4987227;28;20081;-85
2022/05/26 02:41:45;;;;;;;28.98;6.85;;;13.70;99.90;;;;;;5007254;28;20026;-86
2022/05/26 02:44:10;;;;;;;34.75;6.90;;;13.70;99.90;;;;;;5005298;28;20412;-86
2022/05/26 02:46:36;;;;;;;28.05;6.85;;;13.60;99.90;;;;;;5005888;28;20046;-86
2022/05/26 02:49:04;;;;;;;28.00;6.25;;;13.60;99.90;;;;;;5005495;28;20046;-86
2022/05/26 02:51:33;;;;;;;27.42;6.53;;;13.60;99.90;;;;;;5006585;28;20037;-86
2022/05/26 02:54:14;;;;;;;31.15;6.45;;;13.50;99.90;;;;;;5005684;28;20377;-86
2022/05/26 02:56:56;;;;;;;28.38;6.90;;;13.50;99.90;;;;;;4989835;28;20129;-86
2022/05/26 02:59:48;;;;;;;26.38;5.88;;;13.50;99.90;;;;;;4990826;28;20443;-86
2022/05/26 03:02:20;;;;;;;26.58;6.18;;;13.50;99.90;;;;;;5023122;28;20128;-86
2022/05/26 03:05:05;;;;;;;26.87;7.33;;;13.40;99.90;;;;;;5000309;28;20042;-86
2022/05/26 03:07:33;;;;;;;33.38;6.80;;;13.40;99.90;;;;;;5005675;28;20465;-86
2022/05/26 03:10:03;;;;;;;26.35;6.10;;;13.40;99.90;;;;;;5006498;28;20053;-86
2022/05/26 03:12:33;;;;;;;26.08;6.35;;;13.40;99.90;;;;;;5006813;28;20069;-85
2022/05/26 03:14:58;;;;;;;25.15;6.18;;;13.40;99.90;;;;;;4988318;28;20042;-86
2022/05/26 03:17:24;;;;;;;24.45;5.97;;;13.40;99.90;;;;;;4999403;28;20041;-85
2022/05/26 03:19:50;;;;;;;32.55;6.82;;;13.40;99.90;;;;;;5005830;28;20129;-86
2022/05/26 03:22:16;;;;;;;27.80;6.40;;;13.40;99.90;;;;;;4989261;28;20040;-86
2022/05/26 03:24:42;;;;;;;26.02;6.88;;;13.40;99.90;;;;;;5004767;28;20396;-86
2022/05/26 03:27:07;;;;;;;24.52;5.68;;;13.40;99.90;;;;;;5004459;28;20045;-85
2022/05/26 03:29:34;;;;;;;23.08;5.63;;;13.40;99.90;;;;;;5005748;28;20034;-87
2022/05/26 03:31:59;;;;;;;19.25;5.20;;;13.40;99.90;;;;;;5006681;28;20046;-86
2022/05/26 03:42:39;;;;;;;;;;;13.30;99.90;;;;;;5024813;28;20420;-86
2022/05/26 03:45:06;;;;;;;20.48;3.92;;;13.30;99.90;;;;;;5004490;28;20008;-85
2022/05/26 03:47:32;;;;;;;14.80;3.45;;;13.30;99.90;;;;;;5005141;28;20078;-86
2022/05/26 03:49:58;;;;;;;12.20;3.20;;;13.30;99.90;;;;;;5005241;28;20516;-86
2022/05/26 03:52:23;;;;;;;16.85;3.17;;;13.30;99.90;;;;;;5004696;28;20133;-86
2022/05/26 03:54:49;;;;;;;16.27;3.13;;;13.20;99.90;;;;;;5004627;28;20042;-86
2022/05/26 03:57:22;;;;;;;15.00;3.00;;;13.20;99.90;;;;;;4989447;28;20033;-86
2022/05/26 03:59:47;;;;;;;15.15;3.42;;;13.20;99.90;;;;;;5006023;28;20148;-86
2022/05/26 04:02:13;;;;;;;17.02;3.10;;;13.20;99.90;;;;;;4989074;28;20164;-87
2022/05/26 04:04:38;;;;;;;13.93;2.92;;;13.20;99.90;;;;;;5004326;28;20038;-86
2022/05/26 04:07:04;;;;;;;9.80;2.47;;;13.20;99.90;;;;;;5004657;28;20552;-87
2022/05/26 04:09:29;;;;;;;10.95;2.70;;;13.20;99.90;;;;;;5004284;28;20200;-87
2022/05/26 04:11:55;;;;;;;12.13;2.22;;;13.20;99.90;;;;;;5004990;28;20081;-86
2022/05/26 04:14:21;;;;;;;9.80;2.10;;;13.20;99.90;;;;;;4988017;28;20036;-86
2022/05/26 04:16:46;;;;;;;12.27;1.88;;;13.20;99.90;;;;;;4991176;28;20156;-88
2022/05/26 04:19:12;;;;;;;10.10;2.20;;;13.20;99.90;;;;;;4989307;28;20095;-87
2022/05/26 04:22:14;;;;;;;9.73;2.17;;;13.20;99.90;;;;;;4988830;28;20496;-87
2022/05/26 04:24:23;;;;;;;7.80;1.75;;;13.10;99.90;;;;;;5004729;28;21836;-87
2022/05/26 04:26:49;;;;;;;10.43;1.90;;;13.20;99.90;;;;;;5005244;28;20116;-88
2022/05/26 04:29:14;;;;;;;11.75;1.60;;;13.20;99.90;;;;;;4989991;28;20038;-86
2022/05/26 04:31:40;;;;;;;10.25;2.10;;;13.20;99.90;;;;;;4989433;28;20030;-87
2022/05/26 04:34:06;;;;;;;10.18;1.83;;;13.20;99.90;;;;;;4988255;28;20461;-87
2022/05/26 04:36:31;;;;;;;10.10;2.00;;;13.20;99.90;;;;;;5004568;28;20048;-85
2022/05/26 04:38:57;;;;;;;9.40;1.90;;;13.10;99.90;;;;;;5004574;28;20038;-87
2022/05/26 04:41:23;;;;;;;10.95;2.15;;;13.10;99.90;;;;;;5004759;28;20030;-86
2022/05/26 04:43:48;;;;;;;5.07;1.63;;;13.10;99.90;;;;;;4986802;28;20045;-86
2022/05/26 04:46:17;;;;;;;8.25;1.83;;;13.10;99.90;;;;;;4988208;28;20037;-86
2022/05/26 04:48:43;;;;;;;8.65;1.80;;;13.20;99.90;;;;;;5019953;28;20049;-86
2022/05/26 04:51:10;;;;;;;7.85;1.88;;;13.20;99.90;;;;;;5004932;28;20100;-86
2022/05/26 04:53:35;;;;;;;10.15;2.00;;;13.30;99.90;;;;;;5004794;28;20038;-86
2022/05/26 04:56:01;;;;;;;9.48;1.67;;;13.40;99.90;;;;;;5004572;28;20092;-88
2022/05/26 04:58:27;;;;;;;11.57;2.20;;;13.50;99.90;;;;;;4991838;28;20042;-86
2022/05/26 05:00:55;;;;;;;10.68;2.00;;;13.60;99.90;;;;;;5007233;28;20073;-85
2022/05/26 05:03:21;;;;;;;5.85;1.67;;;13.90;99.90;;;;;;5008711;28;20038;-87
2022/05/26 05:05:47;;;;;;;9.50;1.65;;;13.70;99.90;;;;;;4985234;28;20073;-87
2022/05/26 05:08:13;;;;;;;10.52;1.50;;;13.80;99.90;;;;;;5018941;28;20080;-87
2022/05/26 05:10:38;;;;;;;9.15;1.45;;;13.80;99.90;;;;;;5009025;28;20037;-86
2022/05/26 05:13:05;;;;;;;7.05;1.73;;;13.90;99.90;;;;;;5007050;28;20033;-87
2022/05/26 05:15:36;;;;;;;7.90;1.77;;;13.90;99.90;;;;;;4991729;28;20030;-87
2022/05/26 05:18:02;;;;;;;8.90;1.63;;;14.00;99.90;;;;;;4993033;28;20038;-86
2022/05/26 05:20:27;;;;;;;7.38;1.70;;;14.00;99.90;;;;;;4992917;28;20553;-86
2022/05/26 05:23:00;;;;;;;8.45;1.83;;;14.10;99.90;;;;;;5007854;28;20069;-87
2022/05/26 05:25:34;;;;;;;5.65;1.40;;;14.10;99.90;;;;;;4991423;28;20046;-85
2022/05/26 05:28:22;;;;;;;6.43;1.33;;;14.20;99.90;;;;;;4992137;28;20416;-86
2022/05/26 05:30:56;;;;;;;9.25;1.50;;;14.20;99.90;;;;;;5009070;28;20042;-85
2022/05/26 05:33:34;;;;;;;10.05;1.58;;;14.30;99.90;;;;;;5008548;28;20033;-86
2022/05/26 05:36:12;;;;;;;5.53;1.20;;;14.30;99.90;;;;;;5005188;28;20045;-86
2022/05/26 05:38:39;;;;;;;7.95;1.52;;;14.40;99.90;;;;;;5008599;28;20029;-85
2022/05/26 05:41:09;;;;;;;6.63;1.50;;;14.50;99.90;;;;;;5009043;28;20077;-87
2022/05/26 05:43:36;;;;;;;6.63;1.27;;;14.60;99.90;;;;;;5002593;28;20034;-86
2022/05/26 05:46:02;;;;;;;9.18;1.60;;;14.60;99.90;;;;;;5011324;28;20048;-86
2022/05/26 05:48:28;;;;;;;9.90;1.50;;;14.70;99.90;;;;;;5013040;28;20038;-88
2022/05/26 05:50:54;;;;;;;8.70;1.55;;;14.70;99.90;;;;;;4993787;28;20050;-87
2022/05/26 05:53:21;;;;;;;8.23;1.35;;;14.80;99.90;;;;;;5002926;28;20081;-87
2022/05/26 05:55:46;;;;;;;6.10;1.58;;;14.90;99.90;;;;;;4989964;28;20053;-86
2022/05/26 05:58:12;;;;;;;9.32;1.55;;;15.00;99.90;;;;;;5008848;28;20528;-87
2022/05/26 06:00:40;;;;;;;8.23;1.35;;;14.90;99.90;;;;;;5005130;28;20460;-87
2022/05/26 06:03:06;;;;;;;7.30;1.35;;;15.00;99.90;;;;;;5005045;28;20116;-88
2022/05/26 06:05:33;;;;;;;8.57;1.60;;;15.10;99.90;;;;;;5006346;28;20280;-87
2022/05/26 06:08:06;;;;;;;9.55;1.45;;;15.10;99.90;;;;;;4994186;28;20037;-87
2022/05/26 06:10:41;;;;;;;6.10;1.40;;;15.20;99.90;;;;;;5010735;28;20503;-87
2022/05/26 06:13:24;;;;;;;;;;;;;;;;;;;;;
2022/05/26 06:15:59;;;;;;;8.37;1.63;;;15.40;99.90;;;;;;5007148;28;20046;-88
2022/05/26 06:18:43;;;;;;;7.00;1.20;;;15.40;99.90;;;;;;5012717;28;20144;-87
2022/05/26 06:21:21;;;;;;;8.68;1.50;;;15.40;99.90;;;;;;5012804;28;20055;-88
2022/05/26 06:23:56;;;;;;;5.82;1.40;;;15.60;99.90;;;;;;5006834;28;20443;-87
2022/05/26 06:26:25;;;;;;;4.00;1.10;;;15.60;99.90;;;;;;5007429;28;20069;-86
2022/05/26 06:37:49;;;;;;;6.72;1.00;;;15.80;99.90;;;;;;5011881;28;20042;-87
2022/05/26 06:40:15;;;;;;;7.70;1.00;;;15.90;99.90;;;;;;4995425;28;20407;-88
2022/05/26 06:42:59;;;;;;;5.93;1.30;;;15.90;99.90;;;;;;4995470;28;20050;-88
2022/05/26 06:45:34;;;;;;;7.50;1.25;;;16.00;99.90;;;;;;4997557;28;20042;-87
2022/05/26 06:48:09;;;;;;;5.05;1.63;;;16.00;99.90;;;;;;4996934;28;20080;-87
2022/05/26 06:50:42;;;;;;;7.38;1.35;;;15.90;99.90;;;;;;4995320;28;20088;-89
2022/05/26 06:53:20;;;;;;;6.38;0.90;;;15.90;99.90;;;;;;4995972;28;20038;-88
2022/05/26 06:55:52;;;;;;;4.25;0.88;;;15.90;99.90;;;;;;4995023;28;20540;-85
2022/05/26 06:58:20;;;;;;;5.43;1.20;;;15.80;99.90;;;;;;5009553;28;20069;-88
2022/05/26 07:00:45;;;;;;;6.53;1.10;;;15.60;99.90;;;;;;5002577;28;20067;-86
2022/05/26 07:03:14;;;;;;;9.20;1.45;;;15.60;99.90;;;;;;4992382;28;20120;-87
2022/05/26 07:05:45;;;;;;;4.63;1.15;;;15.50;99.90;;;;;;5007178;28;20041;-88
2022/05/26 07:08:13;;;;;;;7.50;1.00;;;15.50;99.90;;;;;;4993557;28;20144;-86
2022/05/26 07:10:42;;;;;;;7.28;1.30;;;15.40;99.90;;;;;;4992459;28;20052;-87
2022/05/26 07:13:07;;;;;;;7.82;1.20;;;15.30;99.90;;;;;;5002810;28;20124;-86
2022/05/26 07:15:33;;;;;;;5.70;1.38;;;15.40;99.90;;;;;;5004205;28;20034;-86
2022/05/26 07:17:59;;;;;;;8.38;1.45;;;15.40;99.90;;;;;;4989305;28;20038;-86
2022/05/26 07:20:25;;;;;;;5.07;1.23;;;15.40;99.90;;;;;;4992082;28;20046;-86
2022/05/26 07:22:50;;;;;;;8.90;1.33;;;15.60;99.90;;;;;;5005877;28;20048;-87
2022/05/26 07:25:16;;;;;;;7.18;1.40;;;15.60;99.90;;;;;;4992403;28;20073;-88
2022/05/26 07:27:44;;;;;;;6.97;1.27;;;15.70;99.90;;;;;;5025282;28;20041;-87
2022/05/26 07:30:10;;;;;;;4.00;1.20;;;15.60;99.90;;;;;;5014255;28;20044;-84
2022/05/26 07:32:36;;;;;;;8.38;1.50;;;15.80;99.90;;;;;;5008529;28;20087;-86
2022/05/26 07:35:25;;;;;;;5.68;1.52;;;15.80;99.90;;;;;;5008604;28;20046;-88
2022/05/26 07:43:30;;;;;;;7.97;1.30;;;15.90;99.90;;;;;;4991583;28;19917;-87
2022/05/26 07:45:56;;;;;;;8.23;1.42;;;15.90;99.90;;;;;;4996803;28;20133;-87
2022/05/26 07:48:22;;;;;;;5.53;1.38;;;16.00;99.90;;;;;;4993367;28;20073;-87
2022/05/26 07:50:47;;;;;;;4.45;1.10;;;15.90;99.90;;;;;;4991325;28;20077;-88
2022/05/26 07:53:13;;;;;;;6.03;1.50;;;16.00;99.90;;;;;;5009847;28;20595;-88
2022/05/26 07:55:42;;;;;;;6.20;1.30;;;16.10;99.90;;;;;;5007933;28;20052;-87
2022/05/26 07:58:12;;;;;;;5.63;1.30;;;16.10;99.90;;;;;;4991244;28;20037;-88
2022/05/26 08:00:40;;;;;;;6.85;1.10;;;16.20;99.90;;;;;;4988904;28;20049;-88
2022/05/26 08:03:06;;;;;;;5.82;1.45;;;16.10;99.90;;;;;;5010290;28;20447;-88
2022/05/26 08:05:32;;;;;;;7.22;1.35;;;16.10;99.90;;;;;;4992989;28;20069;-88
2022/05/26 08:07:58;;;;;;;8.07;1.05;;;16.10;99.90;;;;;;4986637;28;20088;-88
2022/05/26 08:10:24;;;;;;;6.25;1.42;;;16.20;99.90;;;;;;4992308;28;20049;-87
2022/05/26 08:12:50;;;;;;;7.90;1.23;;;16.50;99.90;;;;;;5007357;28;20042;-87
2022/05/26 08:15:19;;;;;;;5.47;1.45;;;16.50;99.90;;;;;;5012860;28;20416;-90
2022/05/26 08:17:45;;;;;;;8.38;1.23;;;16.60;99.90;;;;;;5006986;28;20072;-87
2022/05/26 08:20:11;;;;;;;6.80;1.02;;;16.70;99.90;;;;;;4994226;28;20124;-88
2022/05/26 08:22:39;;;;;;;4.47;1.33;;;16.80;99.90;;;;;;5001162;28;20079;-88
2022/05/26 08:25:09;;;;;;;6.32;1.20;;;16.80;99.90;;;;;;5004761;28;20046;-87
2022/05/26 08:27:36;;;;;;;8.85;1.27;;;16.90;99.90;;;;;;4984757;28;20180;-86
2022/05/26 08:30:02;;;;;;;4.93;1.15;;;17.10;99.90;;;;;;4998253;28;20085;-89
2022/05/26 08:32:28;;;;;;;5.45;1.02;;;17.10;99.90;;;;;;4985532;28;20073;-87
2022/05/26 08:35:03;;;;;;;4.70;1.20;;;17.10;99.90;;;;;;5013259;28;20640;-88
2022/05/26 08:37:29;;;;;;;6.75;1.13;;;17.30;99.90;;;;;;5007498;28;20369;-87
2022/05/26 08:39:54;;;;;;;6.38;1.45;;;17.40;99.90;;;;;;5014266;28;20085;-87
2022/05/26 08:42:31;;;;;;;8.50;1.27;;;17.40;99.90;;;;;;5012498;28;20040;-88
2022/05/26 08:45:12;;;;;;;5.03;1.65;;;17.40;99.90;;;;;;4994351;28;20034;-89
2022/05/26 08:47:46;;;;;;;9.32;1.17;;;17.30;99.90;;;;;;4980397;28;20046;-87
2022/05/26 08:50:27;;;;;;;6.07;1.02;;;17.50;99.90;;;;;;5014151;28;20045;-89
2022/05/26 08:53:20;;;;;;;6.03;1.08;;;17.50;99.90;;;;;;5013185;28;20045;-86
2022/05/26 08:55:50;;;;;;;7.05;0.95;;;17.40;99.90;;;;;;5003366;28;20044;-86
2022/05/26 08:58:27;;;;;;;6.30;1.27;;;17.20;99.90;;;;;;4996658;28;20066;-85
2022/05/26 09:00:54;;;;;;;5.95;1.77;;;17.30;99.90;;;;;;5010160;28;20053;-89
2022/05/26 09:03:34;;;;;;;6.00;1.48;;;17.10;99.90;;;;;;5011032;28;20047;-88
2022/05/26 09:06:09;;;;;;;5.28;1.00;;;17.20;99.90;;;;;;5006174;28;20042;-88
2022/05/26 09:14:39;;;;;;;4.63;1.13;;;17.60;99.90;;;;;;5009754;28;20046;-86
2022/05/26 09:17:14;;;;;;;5.90;0.90;;;17.70;99.90;;;;;;5012970;28;20077;-90
2022/05/26 09:19:42;;;;;;;6.65;1.00;;;17.90;99.90;;;;;;4999172;28;20061;-89
2022/05/26 09:22:32;;;;;;;4.85;0.80;;;18.10;99.90;;;;;;5002663;28;20064;-87
2022/05/26 09:25:01;;;;;;;5.90;1.00;;;18.40;99.90;;;;;;4992349;28;20148;-87
2022/05/26 09:27:38;;;;;;;6.28;0.88;;;18.50;99.90;;;;;;4989571;28;20112;-87
2022/05/26 09:30:19;;;;;;;4.28;0.93;;;18.70;99.90;;;;;;5007346;28;20111;-89
2022/05/26 09:32:47;;;;;;;5.13;0.85;;;18.70;99.90;;;;;;4989111;28;20042;-89
2022/05/26 09:35:18;;;;;;;3.40;0.80;;;18.70;99.90;;;;;;5005312;28;20520;-89
2022/05/26 09:37:58;;;;;;;7.20;1.30;;;18.90;99.90;;;;;;5008411;28;20521;-87
2022/05/26 09:40:40;;;;;;;3.30;1.08;;;19.00;99.90;;;;;;5009129;28;20484;-84
2022/05/26 09:43:06;;;;;;;4.75;0.70;;;19.10;99.90;;;;;;5005499;28;20088;-87
2022/05/26 09:45:41;;;;;;;5.43;1.05;;;19.30;99.90;;;;;;5003277;28;20132;-86
2022/05/26 09:48:27;;;;;;;5.20;1.15;;;19.10;99.90;;;;;;4990677;28;20073;-87
2022/05/26 09:51:05;;;;;;;3.90;0.85;;;19.00;99.90;;;;;;5005277;28;20057;-88
2022/05/26 09:53:38;;;;;;;2.83;0.80;;;19.00;99.90;;;;;;4991416;28;20396;-86
2022/05/26 09:56:05;;;;;;;5.90;0.80;;;19.00;99.90;;;;;;5007092;28;20496;-87
2022/05/26 09:58:41;;;;;;;4.97;0.80;;;19.00;99.90;;;;;;5006564;28;20478;-85
2022/05/26 10:01:35;;;;;;;3.60;0.82;;;18.60;99.90;;;;;;5007141;28;20121;-83
2022/05/26 10:04:27;;;;;;;6.43;1.08;;;18.50;99.90;;;;;;5005826;28;20029;-84
2022/05/26 10:07:01;;;;;;;5.18;1.13;;;18.50;99.90;;;;;;4991315;28;20046;-86
2022/05/26 10:09:49;;;;;;;3.35;0.63;;;18.40;99.90;;;;;;5007485;28;20049;-84
2022/05/26 10:12:49;;;;;;;3.85;0.88;;;18.80;99.90;;;;;;4987870;28;20615;-83
2022/05/26 10:15:36;;;;;;;5.95;1.10;;;19.00;99.90;;;;;;5008310;28;20045;-87
2022/05/26 10:18:19;;;;;;;4.72;0.90;;;19.20;99.90;;;;;;4990176;28;20474;-82
2022/05/26 10:20:57;;;;;;;3.35;0.80;;;18.90;99.90;;;;;;5000996;28;20548;-89
2022/05/26 10:23:37;;;;;;;4.38;0.98;;;18.70;99.90;;;;;;5008807;28;20046;-87
2022/05/26 10:26:06;;;;;;;2.90;0.80;;;18.50;99.90;;;;;;5011791;28;20133;-89
2022/05/26 10:28:59;;;;;;;3.88;0.90;;;18.60;99.90;;;;;;5009947;28;20627;-87
2022/05/26 10:31:52;;;;;;;4.22;0.90;;;18.80;99.90;;;;;;5011773;28;20065;-88
2022/05/26 10:34:23;;;;;;;5.28;0.90;;;18.90;99.90;;;;;;4994549;28;20065;-88
2022/05/26 10:37:10;;;;;;;4.10;0.88;;;18.70;99.90;;;;;;5003587;28;20045;-88
2022/05/26 10:39:44;;;;;;;3.28;1.00;;;18.50;99.90;;;;;;4992387;28;20081;-88
2022/05/26 10:42:19;;;;;;;4.80;0.88;;;18.60;99.90;;;;;;5002731;28;20045;-87
2022/05/26 10:45:19;;;;;;;3.28;1.10;;;18.60;99.90;;;;;;4984446;28;20037;-87
2022/05/26 10:48:23;;;;;;;5.45;1.00;;;18.60;99.90;;;;;;5011238;28;20038;-86
2022/05/26 10:51:08;;;;;;;3.80;0.90;;;18.70;99.90;;;;;;4996906;28;20442;-88
2022/05/26 10:53:36;;;;;;;4.88;0.95;;;19.00;99.90;;;;;;4995282;28;20042;-88
2022/05/26 10:56:06;;;;;;;3.78;0.75;;;19.20;99.90;;;;;;5008664;28;20046;-88
2022/05/26 10:58:46;;;;;;;5.70;1.08;;;19.60;99.90;;;;;;4989209;28;20419;-87
2022/05/26 11:01:25;;;;;;;5.28;1.00;;;20.00;99.90;;;;;;5010072;28;20049;-88
2022/05/26 11:03:55;;;;;;;5.50;0.90;;;20.40;99.90;;;;;;5009480;28;20038;-87
2022/05/26 11:06:32;;;;;;;4.95;1.20;;;20.50;99.90;;;;;;5009792;28;20056;-87
2022/05/26 11:09:21;;;;;;;4.88;0.90;;;20.60;99.90;;;;;;4993620;28;20092;-87
2022/05/26 11:11:53;;;;;;;4.07;0.90;;;20.40;99.90;;;;;;4999914;28;20054;-86
2022/05/26 11:17:30;;;;;;;6.15;1.08;;;20.20;99.90;;;;;;5001790;28;20096;-87
2022/05/26 11:20:13;;;;;;;6.82;1.10;;;20.10;99.90;;;;;;4991584;28;20087;-87
2022/05/26 11:22:41;;;;;;;6.75;0.90;;;20.40;99.90;;;;;;4986442;28;20034;-87
2022/05/26 11:25:07;;;;;;;4.15;1.00;;;20.60;99.90;;;;;;5007346;28;20139;-86
2022/05/26 11:27:50;;;;;;;11.40;1.20;;;20.40;99.90;;;;;;5008063;28;20402;-85
2022/05/26 11:36:30;;;;;;;4.75;1.23;;;20.10;99.90;;;;;;5006772;28;20108;-86
2022/05/26 11:39:00;;;;;;;3.65;0.85;;;19.90;99.90;;;;;;4992315;28;20034;-86
2022/05/26 11:41:31;;;;;;;3.45;0.98;;;19.80;99.90;;;;;;5009510;28;20396;-86
2022/05/26 11:44:07;;;;;;;5.70;0.90;;;19.60;99.90;;;;;;5009305;28;20037;-85
2022/05/26 11:46:41;;;;;;;5.78;1.23;;;19.50;99.90;;;;;;4996179;28;20084;-85
2022/05/26 11:49:10;;;;;;;3.85;1.05;;;19.40;99.90;;;;;;5001306;28;20046;-86
2022/05/26 11:51:41;;;;;;;5.68;1.20;;;19.30;99.90;;;;;;4992228;28;20100;-86
2022/05/26 11:54:31;;;;;;;3.85;1.30;;;19.30;99.90;;;;;;5008419;28;20041;-87
2022/05/26 11:56:57;;;;;;;6.45;1.50;;;19.30;99.90;;;;;;4991522;28;20068;-84
2022/05/26 11:59:34;;;;;;;4.53;1.15;;;19.50;99.90;;;;;;5006923;28;20035;-86
2022/05/26 12:01:59;;;;;;;9.85;1.40;;;19.60;99.90;;;;;;5009237;28;20048;-86
2022/05/26 12:04:32;;;;;;;6.03;1.23;;;19.80;99.90;;;;;;5008491;28;20046;-87
2022/05/26 12:07:04;;;;;;;7.65;1.33;;;19.70;99.90;;;;;;5013308;28;20065;-86
2022/05/26 12:09:44;;;;;;;4.95;1.20;;;19.60;99.90;;;;;;4990586;28;20034;-87
2022/05/26 12:12:16;;;;;;;5.57;1.20;;;19.80;99.90;;;;;;5019136;28;20044;-87
2022/05/26 12:14:50;;;;;;;4.70;1.20;;;19.70;99.90;;;;;;5002757;28;20069;-87
2022/05/26 12:17:24;;;;;;;;;;;19.50;99.90;;;;;;5006250;28;20428;-88
2022/05/26 12:19:50;;;;;;;4.75;1.40;;;19.50;99.90;;;;;;5003566;28;19917;-86
2022/05/26 12:22:32;;;;;;;4.22;1.10;;;19.50;99.90;;;;;;5010493;28;20034;-89
2022/05/26 12:25:19;;;;;;;5.57;1.30;;;19.60;99.90;;;;;;4997597;28;20042;-86
2022/05/26 12:28:05;;;;;;;5.38;1.10;;;19.70;99.90;;;;;;4989993;28;20089;-87
2022/05/26 12:30:39;;;;;;;6.32;1.20;;;19.60;99.90;;;;;;5013074;28;20033;-86
2022/05/26 12:33:20;;;;;;;3.97;1.08;;;19.70;99.90;;;;;;5023234;28;20088;-87
2022/05/26 12:36:10;;;;;;;5.63;1.20;;;20.00;99.90;;;;;;4996520;28;20603;-87
2022/05/26 12:39:18;;;;;;;5.05;1.30;;;20.20;99.90;;;;;;4992123;28;20511;-87
2022/05/26 12:42:23;;;;;;;7.72;1.42;;;19.90;99.90;;;;;;4990133;28;20046;-87
2022/05/26 12:45:03;;;;;;;8.48;1.40;;;19.80;99.90;;;;;;4985857;28;20045;-87
2022/05/26 12:47:58;;;;;;;6.22;1.30;;;19.90;99.90;;;;;;4991546;28;20045;-88
2022/05/26 12:50:24;;;;;;;;;;;19.90;99.90;;;;;;5006736;28;20091;-88
2022/05/26 12:52:56;;;;;;;6.20;1.40;;;19.90;99.90;;;;;;5007885;28;19917;-86
2022/05/26 12:55:50;;;;;;;4.35;0.95;;;19.80;99.90;;;;;;5007781;28;20527;-87
2022/05/26 12:58:31;;;;;;;5.65;1.20;;;19.50;99.90;;;;;;4982976;28;20030;-86
2022/05/26 13:00:56;;;;;;;5.47;0.90;;;19.50;99.90;;;;;;4993580;28;20116;-86
2022/05/26 13:03:48;;;;;;;4.10;1.00;;;19.40;99.90;;;;;;4990743;28;20081;-87
2022/05/26 13:06:30;;;;;;;5.03;1.10;;;19.50;99.90;;;;;;5002401;28;20182;-85
2022/05/26 13:09:15;;;;;;;5.13;1.20;;;19.30;99.90;;;;;;5004911;28;20096;-86
2022/05/26 13:11:52;;;;;;;7.00;1.38;;;19.30;99.90;;;;;;5025041;28;20639;-83
2022/05/26 13:14:28;;;;;;;3.58;0.93;;;19.50;99.90;;;;;;4989834;28;20069;-84
2022/05/26 13:17:00;;;;;;;6.07;1.33;;;19.50;99.90;;;;;;5004685;28;20046;-87
2022/05/26 13:19:27;;;;;;;4.30;1.02;;;19.50;99.90;;;;;;4987183;28;20073;-85
2022/05/26 13:21:55;;;;;;;4.72;1.40;;;19.60;99.90;;;;;;5014181;28;20097;-86
2022/05/26 13:24:31;;;;;;;4.63;1.10;;;19.60;99.90;;;;;;4995733;28;20037;-85
2022/05/26 13:27:09;;;;;;;8.13;1.58;;;19.60;99.90;;;;;;5013487;28;20046;-86
2022/05/26 13:29:42;;;;;;;7.90;1.55;;;19.60;99.90;;;;;;5013760;28;20057;-86
2022/05/26 13:34:56;;;;;;;9.60;1.60;;;19.90;99.90;;;;;;4993252;28;20054;-88
2022/05/26 13:37:28;;;;;;;7.65;1.50;;;20.00;99.90;;;;;;4977654;28;20437;-85
2022/05/26 13:40:28;;;;;;;5.85;1.30;;;19.90;99.90;;;;;;4977637;28;20106;-87
2022/05/26 13:42:54;;;;;;;8.65;1.67;;;19.90;99.90;;;;;;4993805;28;20043;-84
2022/05/26 13:45:27;;;;;;;5.25;1.48;;;20.00;99.90;;;;;;4993118;28;20042;-85
2022/05/26 13:48:27;;;;;;;5.65;1.38;;;19.90;99.90;;;;;;4977387;28;20042;-89
2022/05/26 13:51:08;;;;;;;5.68;1.20;;;19.70;99.90;;;;;;4977408;28;20046;-83
2022/05/26 13:53:40;;;;;;;6.97;1.45;;;19.60;99.90;;;;;;4993456;28;20046;-88
2022/05/26 13:56:07;;;;;;;7.68;1.48;;;19.70;99.90;;;;;;4992990;28;20043;-87
2022/05/26 13:58:34;;;;;;;5.53;1.30;;;19.70;99.90;;;;;;4993323;28;20030;-86